Terminal Aerodrome Forecast
Issued by NWS Sioux Falls, SD

Home | Current Version | Previous Version | Graphics & Text | Print | Product List | Glossary Off
Versions: 1 2 3 4 5 6 7 8 9 10 11 12 13 14

000
FTUS43 KFSD 272323
TAFHON
TAF
KHON 272323Z 2800/2824 VRB03KT P6SM SCT200
     FM281000 36008KT P6SM VCSH SCT025 OVC070
      TEMPO 2810/2814 -RA BKN025
     FM281400 35009KT P6SM BKN045
     FM282100 35011KT P6SM SKC=

USA.gov is the U.S. government's official web portal to all federal, state and local government web resources and services.